This is the latest recevied weather packets stored in our database for station/object K8BCO. If no packets are shown the sender has not sent any weather packets the latest 10 day(s).
| Time | Temp. | Humidity | Pressure | Rain* | Wind** | Luminosity | Snow |
|---|---|---|---|---|---|---|---|
| 1778019317 | 5° C | 50% | 1008.2 hPa | 0 mm | - | 300 W/m² | - |
| 1778018717 | 5° C | 50% | 1008.2 hPa | 0 mm | - | 289 W/m² | - |
| 1778018117 | 5° C | 49% | 1008.1 hPa | 0 mm | - | 255 W/m² | - |
| 1778017517 | 5° C | 50% | 1007.8 hPa | 0 mm | - | 328 W/m² | - |
| 1778016918 | 5° C | 51% | 1007.9 hPa | 0 mm | - | 308 W/m² | - |
| 1778016317 | 5.56° C | 51% | 1007.8 hPa | 0 mm | - | 294 W/m² | - |
| 1778015718 | 5.56° C | 52% | 1007.8 hPa | 0 mm | - | 276 W/m² | - |
| 1778015118 | 5.56° C | 52% | 1007.7 hPa | 0 mm | - | 374 W/m² | - |
| 1778014518 | 5.56° C | 53% | 1007.5 hPa | 0 mm | - | 333 W/m² | - |
| 1778013919 | 5.56° C | 53% | 1007.5 hPa | 0 mm | - | 232 W/m² | - |
| 1778013319 | 6.11° C | 51% | 1007.2 hPa | 0 mm | - | 298 W/m² | - |
| 1778012718 | 6.11° C | 50% | 1007.1 hPa | 0 mm | - | 401 W/m² | - |
| 1778012116 | 6.11° C | 50% | 1007.1 hPa | 0 mm | - | 347 W/m² | - |
| 1778011516 | 6.67° C | 48% | 1006.9 hPa | 0 mm | - | 405 W/m² | - |
| 1778010917 | 6.67° C | 49% | 1006.7 hPa | 0 mm | - | 569 W/m² | - |
| 1778010316 | 6.67° C | 49% | 1006.9 hPa | 0 mm | - | 307 W/m² | - |
| 1778009716 | 6.67° C | 49% | 1006.6 hPa | 0 mm | - | 792 W/m² | - |
| 1778009116 | 6.67° C | 51% | 1006.6 hPa | 0 mm | - | 495 W/m² | - |
| 1778008517 | 6.67° C | 52% | 1006.5 hPa | 0 mm | - | 451 W/m² | - |
| 1778007917 | 6.67° C | 54% | 1006.5 hPa | 0 mm | - | 803 W/m² | - |
| 1778007317 | 6.67° C | 54% | 1006.2 hPa | 0 mm | - | 833 W/m² | - |
| 1778006717 | 6.11° C | 56% | 1006.3 hPa | 0 mm | - | 847 W/m² | - |
| 1778006117 | 6.11° C | 59% | 1006.2 hPa | 0 mm | - | 899 W/m² | - |
| 1778005518 | 5.56° C | 60% | 1006.3 hPa | 0 mm | - | 421 W/m² | - |
| 1778004918 | 6.11° C | 60% | 1006.2 hPa | 0 mm | - | 526 W/m² | - |
* Rain latest hour (hover to see other rain measurements)
** Current wind speed in m/s (hover to see current wind gust speed)